Time;durP1;ratioP1;P1;durP2;ratioP2;P2;SDS_P1;SDS_P2;PMS_P1;PMS_P2;Temp;Humidity;BMP_temperature;BMP_pressure;BME280_temperature;BME280_humidity;BME280_pressure;Samples;Min_cycle;Max_cycle;Signal;HPM_P1;HPM_P2
2023/12/22 00:01:24;;;;;;;0.98;0.98;;;;;;;0.98;100.00;99053.59;5027973;28;20148;-76
2023/12/22 00:03:50;;;;;;;2.45;2.33;;;;;;;1.10;100.00;99079.66;5027629;28;20363;-76
2023/12/22 00:06:16;;;;;;;27.52;9.02;;;;;;;1.05;100.00;99074.41;5030036;28;20049;-77
2023/12/22 00:08:41;;;;;;;2.53;2.42;;;;;;;0.38;100.00;98962.28;5026683;28;20506;-76
2023/12/22 00:11:07;;;;;;;4.03;3.83;;;;;;;0.71;100.00;99023.06;5028220;28;20523;-76
2023/12/22 00:13:33;;;;;;;0.60;0.60;;;;;;;0.34;100.00;98951.03;5032093;28;20699;-77
2023/12/22 00:16:00;;;;;;;5.95;5.68;;;;;;;0.45;100.00;98961.53;5007349;28;20041;-75
2023/12/22 00:18:27;;;;;;;5.57;5.10;;;;;;;1.10;100.00;99068.44;5026527;28;20576;-75
2023/12/22 00:20:52;;;;;;;4.63;4.43;;;;;;;1.14;100.00;99058.16;5027642;28;20049;-75
2023/12/22 00:23:18;;;;;;;2.40;2.30;;;;;;;0.94;100.00;99047.53;5019272;28;20100;-76
2023/12/22 00:25:43;;;;;;;3.17;1.42;;;;;;;1.23;100.00;99065.22;5025212;28;20037;-77
2023/12/22 00:28:09;;;;;;;3.03;2.85;;;;;;;0.37;100.00;98945.91;5026716;28;20028;-75
2023/12/22 00:30:37;;;;;;;3.75;3.50;;;;;;;1.00;100.00;99031.25;5026034;28;20044;-76
2023/12/22 00:33:02;;;;;;;3.25;3.15;;;;;;;0.66;100.00;98962.75;5020584;28;20576;-77
2023/12/22 00:35:29;;;;;;;5.35;5.05;;;;;;;0.18;100.00;98929.25;5017298;28;20087;-76
2023/12/22 00:37:55;;;;;;;15.25;14.10;;;;;;;0.50;100.00;98952.16;5018440;28;20085;-76
2023/12/22 00:40:20;;;;;;;6.35;5.97;;;;;;;0.45;100.00;98922.84;5024938;28;20068;-78
2023/12/22 00:42:46;;;;;;;1.85;1.75;;;;;;;1.11;100.00;99029.72;5016159;28;20061;-77
2023/12/22 00:45:11;;;;;;;0.40;0.40;;;;;;;1.17;100.00;99029.81;5017334;28;20048;-78
2023/12/22 00:47:38;;;;;;;15.43;14.10;;;;;;;0.36;100.00;98897.75;5031643;28;20166;-76
2023/12/22 00:50:04;;;;;;;6.07;5.65;;;;;;;0.63;100.00;98955.78;5016494;28;20056;-77
2023/12/22 00:52:30;;;;;;;7.50;5.50;;;;;;;0.21;100.00;98887.16;5015145;28;20025;-76
2023/12/22 00:54:56;;;;;;;6.53;6.05;;;;;;;0.53;100.00;98910.06;5005565;28;20438;-76
2023/12/22 00:57:22;;;;;;;4.28;4.07;;;;;;;0.24;100.00;98884.66;5028176;28;20113;-76
2023/12/22 00:59:47;;;;;;;2.13;1.88;;;;;;;0.37;100.00;98885.72;5018029;28;20561;-77
2023/12/22 01:02:16;;;;;;;1.48;1.38;;;;;;;0.55;100.00;98900.63;5033437;28;20037;-76
2023/12/22 01:04:42;;;;;;;21.42;16.38;;;;;;;1.04;100.00;98971.06;5025427;28;20121;-77
2023/12/22 01:07:09;;;;;;;5.05;4.70;;;;;;;0.70;100.00;98903.41;5019256;28;20048;-76
2023/12/22 01:09:36;;;;;;;15.82;14.35;;;;;;;0.70;100.00;98894.81;5016224;28;20053;-79
2023/12/22 01:12:06;;;;;;;4.47;4.28;;;;;;;0.90;100.00;98939.88;5016995;28;20045;-76
2023/12/22 01:14:31;;;;;;;3.33;3.13;;;;;;;1.22;100.00;98996.31;5021932;28;20050;-77
2023/12/22 01:16:59;;;;;;;5.43;5.03;;;;;;;1.19;100.00;98962.66;5025380;28;20137;-77
2023/12/22 01:19:24;;;;;;;5.50;5.25;;;;;;;1.11;100.00;98952.22;5035363;28;20073;-78
2023/12/22 01:21:50;;;;;;;0.82;0.82;;;;;;;1.10;100.00;98960.84;5026766;28;20442;-77
2023/12/22 01:24:16;;;;;;;0.60;0.60;;;;;;;0.80;100.00;98941.47;5022064;28;20084;-79
2023/12/22 01:26:41;;;;;;;11.98;9.57;;;;;;;0.87;100.00;98911.44;5017749;28;20075;-78
2023/12/22 01:29:07;;;;;;;9.07;6.43;;;;;;;0.38;100.00;98830.72;5031117;28;20049;-77
2023/12/22 01:31:34;;;;;;;0.60;0.60;;;;;;;0.22;100.00;98800.38;5030497;28;20092;-78
2023/12/22 01:33:59;;;;;;;0.77;0.77;;;;;;;0.48;100.00;98835.16;5015933;28;20053;-76
2023/12/22 01:36:25;;;;;;;1.67;1.58;;;;;;;0.19;100.00;98778.84;5021152;28;20524;-76
2023/12/22 01:38:51;;;;;;;1.23;1.17;;;;;;;0.73;100.00;98872.50;5032825;28;20045;-76
2023/12/22 01:41:16;;;;;;;8.55;7.97;;;;;;;0.70;100.00;98885.34;5025927;28;20045;-77
2023/12/22 01:43:42;;;;;;;20.10;14.63;;;;;;;0.40;100.00;98842.78;5033463;28;20035;-78
2023/12/22 01:46:08;;;;;;;1.00;1.00;;;;;;;0.80;100.00;98876.91;5023434;28;20457;-79
2023/12/22 01:48:35;;;;;;;4.95;1.25;;;;;;;0.73;100.00;98845.84;5025854;28;20565;-78
2023/12/22 01:51:02;;;;;;;1.80;1.70;;;;;;;0.35;100.00;98781.63;5024951;28;20054;-77
2023/12/22 01:53:28;;;;;;;2.45;2.35;;;;;;;0.87;100.00;98866.66;5019586;28;20056;-76
2023/12/22 01:55:55;;;;;;;0.82;0.82;;;;;;;0.81;100.00;98865.72;5025486;28;20046;-77
2023/12/22 01:58:23;;;;;;;0.95;0.90;;;;;;;0.15;100.00;98792.53;5033224;28;20040;-76
2023/12/22 02:00:49;;;;;;;3.72;3.50;;;;;;;0.51;100.00;98847.22;5017964;28;20045;-76
2023/12/22 02:03:16;;;;;;;2.92;2.80;;;;;;;0.59;100.00;98818.13;5027500;28;20049;-77
2023/12/22 02:05:44;;;;;;;0.95;0.95;;;;;;;0.33;100.00;98779.03;5021218;28;20046;-79
2023/12/22 02:08:11;;;;;;;0.98;0.95;;;;;;;0.12;100.00;98765.84;5024071;28;20045;-79
2023/12/22 02:10:36;;;;;;;5.15;4.90;;;;;;;0.50;100.00;98848.94;5018226;28;20033;-77
2023/12/22 02:13:04;;;;;;;2.30;2.20;;;;;;;0.74;100.00;98853.59;5027361;28;20037;-77
2023/12/22 02:15:31;;;;;;;6.03;5.70;;;;;;;0.91;100.00;98881.34;5034688;28;20497;-78
2023/12/22 02:18:07;;;;;;;2.40;2.22;;;;;;;0.29;100.00;98763.50;5022777;28;20053;-77
2023/12/22 02:20:33;;;;;;;5.53;3.25;;;;;;;0.40;100.00;98775.69;5017689;28;20057;-77
2023/12/22 02:22:59;;;;;;;0.80;0.80;;;;;;;0.71;100.00;98848.38;5021680;28;20047;-77
2023/12/22 02:25:24;;;;;;;4.78;4.47;;;;;;;1.04;100.00;98867.75;5026199;28;20029;-77
2023/12/22 02:27:53;;;;;;;1.40;1.35;;;;;;;0.42;100.00;98770.53;5024025;28;20045;-77
2023/12/22 02:30:42;;;;;;;3.33;3.13;;;;;;;1.08;100.00;98853.16;5022902;28;20442;-78
2023/12/22 02:33:08;;;;;;;1.75;1.65;;;;;;;0.36;100.00;98762.75;5014367;28;20065;-78
2023/12/22 02:35:37;;;;;;;1.58;1.48;;;;;;;0.39;100.00;98760.19;5021909;28;20041;-79
2023/12/22 02:38:05;;;;;;;14.13;12.77;;;;;;;0.83;100.00;98839.94;5015050;28;20050;-78
2023/12/22 02:40:31;;;;;;;2.15;2.05;;;;;;;0.28;100.00;98751.44;5021270;28;20045;-78
2023/12/22 02:42:58;;;;;;;4.88;4.43;;;;;;;0.58;100.00;98790.56;5024629;28;20444;-76
2023/12/22 02:45:24;;;;;;;0.40;0.40;;;;;;;0.53;100.00;98781.03;5022663;28;20106;-78
2023/12/22 02:47:49;;;;;;;4.38;4.18;;;;;;;0.21;100.00;98742.72;5004272;28;20066;-79
2023/12/22 02:50:16;;;;;;;3.95;3.75;;;;;;;0.30;100.00;98754.91;5023645;28;20046;-77
2023/12/22 02:52:42;;;;;;;7.53;6.90;;;;;;;-0.03;100.00;98738.09;5020938;28;20843;-76
2023/12/22 02:55:08;;;;;;;2.33;2.15;;;;;;;0.22;100.00;98753.94;5027386;28;20048;-77
2023/12/22 02:57:34;;;;;;;12.32;10.73;;;;;;;0.69;100.00;98838.88;5027280;28;20057;-77
2023/12/22 02:59:59;;;;;;;1.88;1.60;;;;;;;0.76;100.00;98845.88;5028151;28;20049;-78
2023/12/22 03:02:25;;;;;;;6.10;5.78;;;;;;;0.69;100.00;98857.81;5009419;28;20440;-79
2023/12/22 03:04:50;;;;;;;8.85;8.30;;;;;;;0.34;100.00;98783.34;5026669;28;20935;-78
2023/12/22 03:07:16;;;;;;;8.35;2.05;;;;;;;0.17;100.00;98754.72;5034772;28;20733;-79
2023/12/22 03:09:43;;;;;;;5.35;5.13;;;;;;;0.39;100.00;98788.56;5025944;28;20469;-79
2023/12/22 03:12:10;;;;;;;2.95;2.78;;;;;;;0.60;100.00;98825.00;5032036;28;20045;-80
2023/12/22 03:14:36;;;;;;;0.60;0.60;;;;;;;0.18;100.00;98742.69;5017619;28;20513;-80
2023/12/22 03:17:04;;;;;;;3.17;2.97;;;;;;;0.13;100.00;98763.25;5025995;28;20052;-78
2023/12/22 03:19:31;;;;;;;1.30;1.25;;;;;;;0.70;100.00;98828.56;4998192;28;20042;-78
2023/12/22 03:21:56;;;;;;;3.72;3.40;;;;;;;0.30;100.00;98737.72;5028954;28;20079;-76
2023/12/22 03:24:23;;;;;;;0.93;0.93;;;;;;;0.47;100.00;98762.88;5031645;28;20065;-76
2023/12/22 03:26:50;;;;;;;0.90;0.90;;;;;;;0.70;100.00;98828.56;5018564;28;20049;-76
2023/12/22 03:29:17;;;;;;;3.58;3.30;;;;;;;0.32;100.00;98738.59;5021467;28;20076;-77
2023/12/22 03:31:44;;;;;;;8.88;8.40;;;;;;;0.77;100.00;98830.41;5026591;28;20050;-75
2023/12/22 03:34:10;;;;;;;2.40;2.30;;;;;;;0.87;100.00;98820.19;5010097;28;20069;-77
2023/12/22 03:36:35;;;;;;;1.15;1.13;;;;;;;0.93;100.00;98804.78;5021527;28;20143;-77
2023/12/22 03:39:02;;;;;;;1.33;1.23;;;;;;;0.72;100.00;98758.91;5030432;28;20149;-77
2023/12/22 03:41:29;;;;;;;6.75;5.68;;;;;;;0.48;100.00;98700.13;5020874;28;20045;-77
2023/12/22 03:43:55;;;;;;;0.52;0.52;;;;;;;1.29;100.00;98806.94;5033619;28;20436;-75
2023/12/22 03:46:23;;;;;;;19.30;7.28;;;;;;;1.33;100.00;98813.84;5024937;28;20041;-77
2023/12/22 03:48:50;;;;;;;17.42;16.30;;;;;;;0.69;100.00;98682.31;5019729;28;20057;-77
2023/12/22 03:51:16;;;;;;;7.70;7.13;;;;;;;1.42;100.00;98795.00;5025388;28;20473;-78
2023/12/22 03:53:42;;;;;;;5.65;5.35;;;;;;;0.61;100.00;98683.94;5020262;28;20045;-78
2023/12/22 03:56:08;;;;;;;3.10;2.90;;;;;;;0.76;100.00;98672.91;5032337;28;20266;-77
2023/12/22 03:58:35;;;;;;;4.63;4.43;;;;;;;1.49;100.00;98776.13;5020772;28;20037;-78
2023/12/22 04:01:00;;;;;;;0.40;0.40;;;;;;;1.31;100.00;98730.31;5017129;28;20029;-77
2023/12/22 04:03:26;;;;;;;4.53;1.63;;;;;;;1.10;100.00;98702.56;5036020;28;20060;-76
2023/12/22 04:05:52;;;;;;;14.02;13.20;;;;;;;0.78;100.00;98651.44;5027500;28;20049;-77
2023/12/22 04:08:17;;;;;;;1.75;1.65;;;;;;;1.45;100.00;98739.06;5033303;28;20080;-76
2023/12/22 04:10:44;;;;;;;10.85;10.15;;;;;;;1.01;100.00;98632.72;5018894;28;20553;-77
2023/12/22 04:13:11;;;;;;;1.13;0.90;;;;;;;1.56;100.00;98731.38;5028993;28;20037;-77
2023/12/22 04:15:36;;;;;;;4.03;3.80;;;;;;;1.37;100.00;98691.59;5024117;28;20085;-78
2023/12/22 04:18:02;;;;;;;0.50;0.50;;;;;;;1.35;100.00;98695.88;5024617;28;20139;-77
2023/12/22 04:20:28;;;;;;;0.80;0.80;;;;;;;1.11;100.00;98633.69;5024744;28;20049;-77
2023/12/22 04:22:53;;;;;;;14.00;13.20;;;;;;;1.65;100.00;98709.94;5025896;28;20048;-78
2023/12/22 04:25:19;;;;;;;0.77;0.77;;;;;;;1.42;100.00;98656.31;5039715;28;20426;-77
2023/12/22 04:27:46;;;;;;;1.42;1.33;;;;;;;1.72;100.00;98693.59;5020418;28;20100;-79
2023/12/22 04:30:13;;;;;;;1.85;1.75;;;;;;;1.83;100.00;98702.31;5022713;28;20091;-79
2023/12/22 04:32:40;;;;;;;7.35;6.63;;;;;;;1.23;100.00;98587.28;5038067;28;20037;-77
2023/12/22 04:35:06;;;;;;;1.77;1.67;;;;;;;1.22;100.00;98583.84;5023828;28;20037;-77
2023/12/22 04:37:31;;;;;;;1.42;1.33;;;;;;;1.69;100.00;98665.16;5036048;28;20033;-78
2023/12/22 04:39:57;;;;;;;1.45;1.35;;;;;;;1.31;100.00;98597.66;5023566;28;20114;-78
2023/12/22 04:42:22;;;;;;;1.40;1.30;;;;;;;1.29;100.00;98582.16;5038999;28;20049;-77
2023/12/22 04:44:48;;;;;;;11.02;10.13;;;;;;;1.85;100.00;98689.38;5034400;28;20512;-77
2023/12/22 04:47:15;;;;;;;2.25;2.15;;;;;;;1.54;100.00;98642.63;5036889;28;20091;-79
2023/12/22 04:49:41;;;;;;;4.63;4.25;;;;;;;1.12;100.00;98581.16;5036614;28;20087;-77
2023/12/22 04:52:06;;;;;;;3.85;3.65;;;;;;;0.97;100.00;98545.75;5030628;28;20041;-77
2023/12/22 04:54:32;;;;;;;2.65;2.55;;;;;;;1.42;100.00;98642.53;5030166;28;20037;-76
2023/12/22 04:56:57;;;;;;;4.80;4.53;;;;;;;1.82;100.00;98672.13;5026830;28;20053;-79
2023/12/22 04:59:23;;;;;;;0.60;0.60;;;;;;;1.64;100.00;98643.59;5026528;28;20049;-80
2023/12/22 05:01:48;;;;;;;0.40;0.40;;;;;;;0.95;100.00;98537.13;5032702;28;20068;-76
2023/12/22 05:04:14;;;;;;;6.22;5.85;;;;;;;0.95;100.00;98542.28;5036065;28;20021;-76
2023/12/22 05:06:39;;;;;;;1.50;1.40;;;;;;;0.84;100.00;98496.59;5024595;28;20124;-77
2023/12/22 05:09:05;;;;;;;0.75;0.75;;;;;;;1.80;100.00;98652.28;5023265;28;20065;-77
2023/12/22 05:11:31;;;;;;;1.15;1.10;;;;;;;1.23;100.00;98566.59;5024616;28;20049;-78
2023/12/22 05:13:56;;;;;;;1.65;1.55;;;;;;;1.85;100.00;98629.91;5023085;28;20572;-77
2023/12/22 05:16:22;;;;;;;3.92;3.70;;;;;;;1.69;100.00;98624.66;5026997;28;20066;-77
2023/12/22 05:18:47;;;;;;;7.00;6.65;;;;;;;1.49;100.00;98595.22;5026847;28;20568;-77
2023/12/22 05:21:16;;;;;;;3.00;2.80;;;;;;;1.34;100.00;98525.38;5031262;28;20100;-78
2023/12/22 05:23:42;;;;;;;0.50;0.50;;;;;;;1.46;100.00;98539.22;5014394;28;20480;-78
2023/12/22 05:26:08;;;;;;;3.47;3.22;;;;;;;1.88;100.00;98623.03;5003107;28;20259;-77
2023/12/22 05:28:33;;;;;;;0.30;0.30;;;;;;;1.52;100.00;98543.53;5017526;28;20500;-76
2023/12/22 05:30:59;;;;;;;0.40;0.40;;;;;;;2.08;100.00;98604.16;5030964;28;20073;-75
2023/12/22 05:33:24;;;;;;;3.47;3.28;;;;;;;1.93;100.00;98561.00;5024231;28;20049;-77
2023/12/22 05:35:50;;;;;;;11.98;4.30;;;;;;;2.19;100.00;98581.78;5029076;28;20063;-77
2023/12/22 05:38:15;;;;;;;9.00;8.50;;;;;;;2.18;100.00;98580.09;5031130;28;20060;-76
2023/12/22 05:40:41;;;;;;;14.10;13.02;;;;;;;2.19;100.00;98586.13;5016377;28;20107;-77
2023/12/22 05:43:08;;;;;;;0.60;0.60;;;;;;;1.95;100.00;98535.16;5022507;28;20037;-76
2023/12/22 05:45:33;;;;;;;0.35;0.35;;;;;;;2.36;100.00;98592.19;5030170;28;20045;-78
2023/12/22 05:47:59;;;;;;;2.00;1.85;;;;;;;2.02;100.00;98524.81;5024891;28;20754;-77
2023/12/22 05:50:26;;;;;;;0.70;0.65;;;;;;;2.34;100.00;98573.22;5021331;28;20370;-76
2023/12/22 05:52:54;;;;;;;0.70;0.70;;;;;;;2.58;100.00;98613.84;5022611;28;20072;-77
2023/12/22 05:55:19;;;;;;;3.33;3.13;;;;;;;2.72;100.00;98612.16;5026006;28;20043;-77
2023/12/22 05:57:45;;;;;;;3.13;3.00;;;;;;;2.71;100.00;98591.44;5029431;28;20144;-77
2023/12/22 06:00:11;;;;;;;0.30;0.30;;;;;;;2.32;100.00;98497.31;5029641;28;20442;-77
2023/12/22 06:02:36;;;;;;;0.32;0.32;;;;;;;2.91;100.00;98571.63;5025887;28;20045;-77
2023/12/22 06:05:03;;;;;;;2.88;2.67;;;;;;;2.56;100.00;98495.63;5012582;28;20404;-78
2023/12/22 06:07:29;;;;;;;0.90;0.90;;;;;;;2.78;100.00;98523.25;5006124;28;20037;-78
2023/12/22 06:09:55;;;;;;;0.35;0.35;;;;;;;2.76;100.00;98522.38;5021102;28;20040;-78
2023/12/22 06:12:20;;;;;;;0.50;0.50;;;;;;;3.14;100.00;98553.50;5022698;28;20452;-77
2023/12/22 06:14:46;;;;;;;4.88;4.40;;;;;;;2.60;100.00;98459.41;5024784;28;20052;-77
2023/12/22 06:17:11;;;;;;;0.60;0.43;;;;;;;2.73;100.00;98450.75;5018618;28;20644;-76
2023/12/22 06:19:37;;;;;;;0.30;0.30;;;;;;;3.06;100.00;98511.16;5027185;28;20028;-77
2023/12/22 06:22:03;;;;;;;2.78;2.67;;;;;;;3.16;100.00;98514.59;5024833;28;20033;-76
2023/12/22 06:24:29;;;;;;;0.75;0.75;;;;;;;2.68;100.00;98433.50;5020274;28;20069;-76
2023/12/22 06:26:56;;;;;;;1.88;1.77;;;;;;;2.77;100.00;98435.22;5021738;28;20132;-77
2023/12/22 06:29:22;;;;;;;4.45;4.22;;;;;;;2.62;100.00;98436.06;5010715;28;20080;-76
2023/12/22 06:31:53;;;;;;;1.95;1.85;;;;;;;3.34;100.00;98531.88;5020569;28;20133;-77
2023/12/22 06:34:18;;;;;;;4.97;4.40;;;;;;;3.35;100.00;98524.09;5025380;28;20033;-77
2023/12/22 06:36:44;;;;;;;0.73;0.73;;;;;;;3.35;100.00;98524.09;5027552;28;20409;-77
2023/12/22 06:39:09;;;;;;;0.30;0.30;;;;;;;3.34;100.00;98517.16;5031089;28;20061;-78
2023/12/22 06:41:35;;;;;;;0.40;0.40;;;;;;;2.97;100.00;98420.50;5027240;28;20048;-77
2023/12/22 06:44:01;;;;;;;1.65;0.85;;;;;;;2.70;100.00;98391.19;5026176;28;20046;-77
2023/12/22 06:46:30;;;;;;;0.40;0.40;;;;;;;3.45;100.00;98496.41;5028665;28;20497;-76
2023/12/22 06:48:57;;;;;;;0.60;0.60;;;;;;;3.67;100.00;98512.78;5032249;28;20138;-75
2023/12/22 06:51:23;;;;;;;2.60;2.50;;;;;;;3.00;100.00;98419.63;5030883;28;20057;-76
2023/12/22 06:53:50;;;;;;;0.43;0.43;;;;;;;3.66;100.00;98521.44;5038789;28;20489;-77
2023/12/22 06:56:20;;;;;;;6.43;5.47;;;;;;;3.74;100.00;98527.44;5025868;28;20672;-76
2023/12/22 06:58:48;;;;;;;0.32;0.32;;;;;;;3.73;100.00;98523.13;5026875;28;20053;-76
2023/12/22 07:01:20;;;;;;;0.65;0.65;;;;;;;3.74;100.00;98532.63;5029002;28;20548;-78
2023/12/22 07:03:49;;;;;;;0.85;0.85;;;;;;;3.74;100.00;98532.63;5028412;28;20068;-77
2023/12/22 07:06:18;;;;;;;0.98;0.98;;;;;;;3.79;100.00;98536.09;5028550;28;20409;-77
2023/12/22 07:08:44;;;;;;;0.40;0.40;;;;;;;3.67;100.00;98519.69;5026220;28;20383;-77
2023/12/22 07:11:10;;;;;;;7.82;7.20;;;;;;;3.21;100.00;98434.25;5002228;28;20083;-77
2023/12/22 07:13:37;;;;;;;0.80;0.80;;;;;;;2.93;100.00;98421.38;5026274;28;20036;-76
2023/12/22 07:16:04;;;;;;;0.40;0.40;;;;;;;3.54;100.00;98506.78;5034439;28;20032;-77
2023/12/22 07:18:32;;;;;;;0.47;0.47;;;;;;;3.20;100.00;98437.72;5009415;28;20132;-78
2023/12/22 07:21:00;;;;;;;0.73;0.73;;;;;;;3.57;100.00;98495.53;5024684;28;20060;-78
2023/12/22 07:23:26;;;;;;;0.38;0.38;;;;;;;3.82;100.00;98535.22;5030767;28;20134;-78
2023/12/22 07:25:51;;;;;;;0.40;0.40;;;;;;;3.81;100.00;98533.47;5021318;28;20133;-78
2023/12/22 07:28:17;;;;;;;5.25;4.55;;;;;;;3.69;100.00;98517.97;5011707;28;20037;-75
2023/12/22 07:30:42;;;;;;;0.50;0.50;;;;;;;3.21;100.00;98418.72;5008586;28;20049;-76
2023/12/22 07:33:09;;;;;;;2.53;2.45;;;;;;;3.36;100.00;98419.53;5030985;28;20128;-77
2023/12/22 07:35:35;;;;;;;16.42;15.07;;;;;;;3.36;100.00;98434.22;5022701;28;20038;-78
2023/12/22 07:38:02;;;;;;;0.30;0.30;;;;;;;3.97;100.00;98537.75;5033950;28;20064;-78
2023/12/22 07:40:30;;;;;;;1.00;1.00;;;;;;;3.99;100.00;98524.78;5038153;28;20153;-78
2023/12/22 07:42:56;;;;;;;0.47;0.47;;;;;;;3.43;100.00;98438.53;5025453;28;20031;-76
2023/12/22 07:45:22;;;;;;;0.40;0.40;;;;;;;3.90;100.00;98512.69;5027828;28;20057;-75
2023/12/22 07:47:47;;;;;;;0.95;0.95;;;;;;;4.14;100.00;98550.66;5022647;28;20157;-76
2023/12/22 07:50:13;;;;;;;0.75;0.75;;;;;;;4.14;100.00;98536.81;5034097;28;20144;-79
2023/12/22 07:52:38;;;;;;;2.67;1.58;;;;;;;3.48;100.00;98435.91;5030091;28;20095;-77
2023/12/22 07:55:11;;;;;;;0.40;0.40;;;;;;;4.18;100.00;98516.03;5010235;28;20034;-76
2023/12/22 07:57:38;;;;;;;2.05;1.30;;;;;;;3.73;100.00;98450.50;5030837;28;20142;-77
2023/12/22 08:00:06;;;;;;;0.57;0.57;;;;;;;4.37;100.00;98534.97;5025561;28;20053;-77
2023/12/22 08:02:32;;;;;;;2.17;2.08;;;;;;;3.64;100.00;98418.56;5011970;28;20712;-77
2023/12/22 08:04:58;;;;;;;4.47;4.18;;;;;;;3.85;100.00;98431.44;5028858;28;20425;-76
2023/12/22 08:07:24;;;;;;;4.85;4.53;;;;;;;4.01;100.00;98456.44;5034505;28;20060;-76
2023/12/22 08:09:50;;;;;;;5.43;4.43;;;;;;;3.85;100.00;98423.66;5031074;28;20545;-76
2023/12/22 08:12:15;;;;;;;1.50;1.40;;;;;;;4.05;100.00;98484.94;5010492;28;20042;-75
2023/12/22 08:14:42;;;;;;;0.75;0.75;;;;;;;3.90;100.00;98434.84;5019148;28;20449;-74
2023/12/22 08:17:08;;;;;;;6.38;6.03;;;;;;;4.49;100.00;98533.16;5030795;28;20162;-73
2023/12/22 08:19:33;;;;;;;0.52;0.52;;;;;;;4.59;100.00;98521.88;5026540;28;20047;-73
2023/12/22 08:21:59;;;;;;;0.68;0.68;;;;;;;4.01;100.00;98412.31;5032907;28;20069;-75
2023/12/22 08:24:25;;;;;;;0.40;0.40;;;;;;;4.77;100.00;98503.53;5015597;28;20785;-73
2023/12/22 08:26:51;;;;;;;2.15;2.05;;;;;;;4.57;100.00;98459.53;5016875;28;20104;-74
2023/12/22 08:29:18;;;;;;;9.43;3.80;;;;;;;3.98;100.00;98323.25;5020835;28;20051;-73
2023/12/22 08:31:44;;;;;;;11.55;8.82;;;;;;;4.89;100.00;98439.34;5037061;28;20049;-75
2023/12/22 08:34:09;;;;;;;1.20;1.10;;;;;;;4.63;100.00;98370.31;5033950;28;20041;-75
2023/12/22 08:36:35;;;;;;;0.50;0.50;;;;;;;5.10;100.00;98428.75;5028623;28;20041;-74
2023/12/22 08:39:00;;;;;;;5.35;5.05;;;;;;;5.05;100.00;98425.34;5034215;28;20037;-73
2023/12/22 08:41:26;;;;;;;0.30;0.30;;;;;;;4.55;100.00;98356.53;5030206;28;20120;-75
2023/12/22 08:43:53;;;;;;;5.93;5.57;;;;;;;5.21;100.00;98449.44;5027094;28;20049;-74
2023/12/22 08:46:18;;;;;;;1.23;1.23;;;;;;;5.26;100.00;98448.50;5025322;28;20670;-76
2023/12/22 08:48:44;;;;;;;0.57;0.57;;;;;;;4.79;100.00;98363.22;5019457;28;20060;-77
2023/12/22 08:51:10;;;;;;;0.63;0.63;;;;;;;5.27;100.00;98416.44;5017587;28;20429;-76
2023/12/22 08:53:36;;;;;;;2.60;2.50;;;;;;;5.36;100.00;98423.28;5024273;28;20037;-78
2023/12/22 08:56:03;;;;;;;1.52;1.50;;;;;;;5.60;100.00;98418.69;5021238;28;20045;-76
2023/12/22 08:58:30;;;;;;;0.40;0.40;;;;;;;5.49;100.00;98371.97;5004525;28;20673;-78
2023/12/22 09:00:57;;;;;;;1.65;1.55;;;;;;;4.95;100.00;98278.19;5023067;28;20537;-78
2023/12/22 09:03:23;;;;;;;6.85;6.45;;;;;;;5.37;100.00;98359.13;5020238;28;20042;-77
2023/12/22 09:05:49;;;;;;;0.30;0.30;;;;;;;5.29;100.00;98380.00;5020787;28;20069;-77
2023/12/22 09:08:14;;;;;;;1.30;1.20;;;;;;;5.52;100.00;98390.13;5020543;28;20412;-77
2023/12/22 09:10:40;;;;;;;0.90;0.90;;;;;;;5.10;100.00;98324.75;5010004;28;20064;-77
2023/12/22 09:13:06;;;;;;;0.95;0.93;;;;;;;5.09;100.00;98294.47;5022487;28;20045;-76
2023/12/22 09:15:31;;;;;;;0.93;0.93;;;;;;;5.21;100.00;98290.84;5017323;28;20053;-76
2023/12/22 09:17:57;;;;;;;1.40;1.30;;;;;;;5.13;100.00;98336.88;4988329;28;20545;-77
2023/12/22 09:20:22;;;;;;;1.13;1.10;;;;;;;5.51;100.00;98404.03;5017722;28;20069;-77
2023/12/22 09:22:49;;;;;;;0.30;0.30;;;;;;;5.03;100.00;98328.31;5014965;28;20439;-76
2023/12/22 09:25:16;;;;;;;0.90;0.90;;;;;;;5.77;100.00;98413.25;5016460;28;20128;-76
2023/12/22 09:27:43;;;;;;;2.38;2.28;;;;;;;5.58;100.00;98356.25;4992340;28;20187;-78
2023/12/22 09:30:10;;;;;;;0.30;0.30;;;;;;;6.07;100.00;98438.91;5016351;28;20123;-78
2023/12/22 09:32:36;;;;;;;2.47;2.38;;;;;;;5.55;100.00;98330.28;4997609;28;20129;-77
2023/12/22 09:35:01;;;;;;;1.20;1.20;;;;;;;5.82;100.00;98427.06;5017844;28;20052;-78
2023/12/22 09:37:27;;;;;;;10.77;9.70;;;;;;;5.30;100.00;98314.13;5015882;28;20117;-76
2023/12/22 09:39:53;;;;;;;1.52;1.50;;;;;;;5.05;100.00;98259.84;5015807;28;20485;-76
2023/12/22 09:42:21;;;;;;;1.15;1.05;;;;;;;6.08;100.00;98404.16;5014831;28;20105;-76
2023/12/22 09:44:49;;;;;;;2.47;2.28;;;;;;;5.61;100.00;98309.38;5012430;28;20049;-75
2023/12/22 09:47:17;;;;;;;4.25;3.97;;;;;;;5.81;100.00;98394.13;5012152;28;20147;-76
2023/12/22 09:49:45;;;;;;;1.42;1.33;;;;;;;5.56;100.00;98352.81;4999923;28;20037;-77
2023/12/22 09:52:12;;;;;;;0.40;0.40;;;;;;;4.93;100.00;98205.44;4998200;28;20033;-77
2023/12/22 09:54:38;;;;;;;1.10;1.05;;;;;;;5.99;100.00;98390.41;5005269;28;20042;-77
2023/12/22 09:57:05;;;;;;;11.82;11.07;;;;;;;5.54;100.00;98254.88;5014926;28;20099;-75
2023/12/22 09:59:33;;;;;;;1.25;1.25;;;;;;;6.02;100.00;98326.16;5010792;28;20157;-77
2023/12/22 10:02:02;;;;;;;1.08;1.08;;;;;;;6.47;100.00;98346.28;5003866;28;20131;-76
2023/12/22 10:04:29;;;;;;;0.30;0.30;;;;;;;6.19;100.00;98291.19;5020721;28;20031;-76
2023/12/22 10:07:00;;;;;;;0.45;0.45;;;;;;;6.54;100.00;98342.69;5002841;28;20060;-72
2023/12/22 10:09:26;;;;;;;0.30;0.30;;;;;;;6.66;100.00;98344.22;5007953;28;20160;-75
2023/12/22 10:11:53;;;;;;;0.30;0.30;;;;;;;6.68;100.00;98332.03;5012593;28;20501;-74
2023/12/22 10:14:22;;;;;;;0.52;0.52;;;;;;;6.23;100.00;98249.44;4993754;28;20049;-74
2023/12/22 10:16:54;;;;;;;11.15;10.45;;;;;;;6.32;100.00;98288.34;5013084;28;20049;-73
2023/12/22 10:19:22;;;;;;;2.08;1.98;;;;;;;6.91;100.00;98322.03;5011105;28;20501;-73
2023/12/22 10:21:51;;;;;;;1.25;1.25;;;;;;;7.07;100.00;98313.88;5013936;28;20073;-73
2023/12/22 10:24:39;;;;;;;0.28;0.28;;;;;;;7.08;100.00;98310.41;5011752;28;20815;-74
2023/12/22 10:27:05;;;;;;;0.95;0.95;;;;;;;6.62;100.00;98296.50;4992953;28;20583;-74
2023/12/22 10:29:32;;;;;;;0.38;0.38;;;;;;;5.88;100.00;98148.50;5012910;28;20079;-73
2023/12/22 10:32:00;;;;;;;0.55;0.55;;;;;;;6.16;100.00;98190.56;5013718;28;20053;-73
2023/12/22 10:34:26;;;;;;;1.45;1.38;;;;;;;6.48;100.00;98199.50;5013725;28;20119;-73
2023/12/22 10:36:51;;;;;;;1.10;1.05;;;;;;;7.02;100.00;98261.84;5011033;28;20527;-74
2023/12/22 10:39:17;;;;;;;1.58;1.17;;;;;;;7.32;100.00;98277.75;5005461;28;20577;-72
2023/12/22 10:41:44;;;;;;;1.35;1.25;;;;;;;7.50;100.00;98294.75;4997586;28;20072;-74
2023/12/22 10:44:09;;;;;;;0.30;0.30;;;;;;;6.88;100.00;98194.38;5002764;28;20041;-72
2023/12/22 10:46:35;;;;;;;0.32;0.32;;;;;;;7.23;100.00;98194.47;4985554;28;20044;-72
2023/12/22 10:49:02;;;;;;;0.30;0.30;;;;;;;7.86;100.00;98247.81;5009145;28;20047;-72
2023/12/22 10:51:32;;;;;;;1.48;1.38;;;;;;;7.75;100.00;98267.22;4993939;28;20146;-72
2023/12/22 10:53:57;;;;;;;12.23;11.70;;;;;;;7.46;100.00;98239.16;5011784;28;20076;-72
2023/12/22 10:56:24;;;;;;;11.00;9.98;;;;;;;7.18;100.00;98174.56;5014489;28;20129;-74
2023/12/22 10:58:52;;;;;;;2.55;2.35;;;;;;;7.15;100.00;98210.28;5013252;28;20038;-74
2023/12/22 11:01:20;;;;;;;0.55;0.55;;;;;;;7.32;100.00;98264.69;5012613;28;20069;-74
2023/12/22 11:03:51;;;;;;;1.02;0.70;;;;;;;6.72;100.00;98185.16;5013419;28;20053;-74
2023/12/22 11:06:18;;;;;;;0.50;0.40;;;;;;;6.52;100.00;98185.53;5009760;28;20080;-73
2023/12/22 11:08:46;;;;;;;9.25;8.68;;;;;;;6.57;100.00;98224.53;5013383;28;20041;-72
2023/12/22 11:11:29;;;;;;;0.40;0.40;;;;;;;6.86;100.00;98297.81;5009015;28;20160;-74
2023/12/22 11:13:57;;;;;;;2.13;2.03;;;;;;;6.54;100.00;98281.00;5009912;28;20131;-72
2023/12/22 11:16:27;;;;;;;0.45;0.45;;;;;;;6.97;100.00;98288.00;5010197;28;20045;-76
2023/12/22 11:18:56;;;;;;;3.55;1.95;;;;;;;6.39;100.00;98260.47;5012965;28;20116;-78
2023/12/22 11:21:22;;;;;;;0.52;0.45;;;;;;;6.44;100.00;98250.81;5007614;28;21363;-77
2023/12/22 11:23:51;;;;;;;0.30;0.30;;;;;;;6.15;100.00;98253.06;5006680;28;21529;-75
2023/12/22 11:26:18;;;;;;;0.60;0.60;;;;;;;6.39;100.00;98288.22;5008115;28;20085;-75
2023/12/22 11:28:45;;;;;;;2.15;2.05;;;;;;;6.53;100.00;98286.22;5008511;28;20138;-74